International Virtual Aviation Organisation

Eastern Europe and Northern Asia MCD

 
UUWW 110300Z 15002MPS CAVOK 02/M05 Q1026 R24/000070 NOSIG
QNH:(hPa/inHg/mmHg)1026 / 30.3 / 770
QFE:(hPa/inHg/mmHg)1001 / 29.55 / 751
Temperature2
Dew Point-5
Visibility> 10000
WeatherCAVOK
Cloud Cover
Transition Altitude10000 ft.
Transition LevelFL110
SQUAWK